Time;durP1;ratioP1;P1;durP2;ratioP2;P2;SDS_P1;SDS_P2;PMS_P1;PMS_P2;Temp;Humidity;BMP_temperature;BMP_pressure;BME280_temperature;BME280_humidity;BME280_pressure;Samples;Min_cycle;Max_cycle;Signal;HPM_P1;HPM_P2
2022/10/05 00:01:44;;;;;;;5.88;4.20;;;;;;;5.60;100.00;94012.97;5132126;27;20104;-71
2022/10/05 00:04:14;;;;;;;14.45;5.07;;;;;;;5.48;100.00;94025.22;5131979;27;20047;-71
2022/10/05 00:06:42;;;;;;;9.07;6.03;;;;;;;5.51;100.00;94026.63;5131739;27;20049;-71
2022/10/05 00:09:16;;;;;;;9.68;5.97;;;;;;;5.39;100.00;94023.59;5131743;27;20448;-71
2022/10/05 00:11:44;;;;;;;13.85;7.15;;;;;;;5.31;100.00;94021.81;5132244;27;20388;-70
2022/10/05 00:14:16;;;;;;;10.82;7.50;;;;;;;5.35;100.00;94018.81;5132133;27;20091;-70
2022/10/05 00:16:44;;;;;;;7.63;6.13;;;;;;;5.33;100.00;94019.94;5132120;27;20092;-71
2022/10/05 00:19:19;;;;;;;8.95;6.13;;;;;;;5.34;100.00;94024.84;5128112;27;20470;-71
2022/10/05 00:21:46;;;;;;;7.32;4.90;;;;;;;5.30;100.00;94023.59;5122919;27;20058;-71
2022/10/05 00:24:15;;;;;;;6.85;5.10;;;;;;;5.26;100.00;94027.41;5117330;27;20097;-71
2022/10/05 00:26:42;;;;;;;4.85;4.15;;;;;;;5.29;100.00;94021.19;5110980;28;20055;-71
2022/10/05 00:29:20;;;;;;;5.28;4.78;;;;;;;5.25;100.00;94025.00;5110729;28;20092;-71
2022/10/05 00:31:49;;;;;;;5.55;4.70;;;;;;;5.28;100.00;94019.59;5110586;28;20490;-71
2022/10/05 00:34:16;;;;;;;8.95;6.38;;;;;;;5.21;100.00;94021.97;5111008;28;20107;-71
2022/10/05 00:36:44;;;;;;;7.90;6.88;;;;;;;5.28;100.00;94022.16;5120214;27;20452;-71
2022/10/05 00:39:11;;;;;;;7.82;5.72;;;;;;;5.27;100.00;94021.34;5131009;27;20483;-71
2022/10/05 00:41:53;;;;;;;7.88;6.07;;;;;;;5.20;100.00;94023.72;5131359;27;20570;-71
2022/10/05 00:44:32;;;;;;;8.27;6.55;;;;;;;5.25;100.00;94014.81;5131249;27;20096;-72
2022/10/05 00:47:20;;;;;;;9.48;6.55;;;;;;;5.16;100.00;94016.53;5131373;27;20092;-71
2022/10/05 00:50:04;;;;;;;8.07;6.78;;;;;;;5.12;100.00;94015.25;5131436;27;20528;-71
2022/10/05 00:52:38;;;;;;;8.93;6.63;;;;;;;5.07;100.00;94019.09;5131011;27;20055;-71
2022/10/05 00:55:13;;;;;;;9.77;6.63;;;;;;;5.02;100.00;94012.84;5131028;27;20047;-71
2022/10/05 00:57:52;;;;;;;9.07;6.85;;;;;;;5.02;100.00;94031.50;5112365;27;20499;-71
2022/10/05 01:00:23;;;;;;;9.52;6.70;;;;;;;5.00;100.00;94035.91;5110193;28;20400;-71
2022/10/05 01:02:59;;;;;;;8.80;6.78;;;;;;;4.83;100.00;94030.00;5110039;28;20104;-71
2022/10/05 01:05:41;;;;;;;7.97;7.00;;;;;;;4.94;100.00;94036.53;5091805;28;20040;-71
2022/10/05 01:08:21;;;;;;;8.70;7.07;;;;;;;4.93;100.00;94034.94;5098892;28;20035;-71
2022/10/05 01:10:58;;;;;;;10.23;7.22;;;;;;;4.93;100.00;94032.41;5109930;28;20039;-71
2022/10/05 01:13:41;;;;;;;10.30;8.70;;;;;;;4.99;100.00;94036.88;5109832;28;20088;-70
2022/10/05 01:16:15;;;;;;;10.45;7.78;;;;;;;4.91;100.00;94042.72;5108846;28;20039;-71
2022/10/05 01:18:49;;;;;;;11.80;9.30;;;;;;;4.98;100.00;94047.22;5109082;28;20036;-71
2022/10/05 01:21:20;;;;;;;12.70;8.77;;;;;;;5.00;100.00;94042.78;5109404;28;20035;-71
2022/10/05 01:24:26;;;;;;;9.13;7.55;;;;;;;4.95;100.00;94038.94;5109428;28;20444;-71
2022/10/05 01:27:20;;;;;;;9.48;7.93;;;;;;;5.01;100.00;94039.28;5046310;28;20037;-71
2022/10/05 01:29:54;;;;;;;9.13;6.82;;;;;;;4.97;100.00;94037.97;5063560;28;20085;-71
2022/10/05 01:32:29;;;;;;;7.30;6.20;;;;;;;5.02;100.00;94038.31;5109197;28;20100;-71
2022/10/05 01:35:05;;;;;;;8.98;6.60;;;;;;;4.89;100.00;94048.94;5109508;28;20047;-71
2022/10/05 01:37:45;;;;;;;6.72;5.47;;;;;;;4.89;100.00;94042.09;5109250;28;20556;-71
2022/10/05 01:40:19;;;;;;;8.20;6.30;;;;;;;4.80;100.00;94051.47;5109464;28;20043;-71
2022/10/05 01:42:56;;;;;;;7.65;6.38;;;;;;;4.80;100.00;94055.75;5109096;28;20044;-71
2022/10/05 01:45:32;;;;;;;8.93;6.68;;;;;;;4.82;100.00;94053.84;5109383;28;20043;-71
2022/10/05 01:48:07;;;;;;;7.47;6.43;;;;;;;4.86;100.00;94062.75;5108762;28;20044;-70
2022/10/05 01:50:46;;;;;;;8.00;5.50;;;;;;;4.80;100.00;94064.19;5109328;28;20093;-71
2022/10/05 01:53:20;;;;;;;9.20;6.57;;;;;;;4.81;100.00;94068.31;5109196;28;20112;-71
2022/10/05 01:55:56;;;;;;;8.18;5.70;;;;;;;4.76;100.00;94074.81;5109167;28;20047;-71
2022/10/05 01:58:29;;;;;;;8.23;6.32;;;;;;;4.79;100.00;94074.50;5109150;28;20039;-71
2022/10/05 02:01:05;;;;;;;10.40;6.35;;;;;;;4.72;100.00;94081.94;5108882;28;20089;-70
2022/10/05 02:03:38;;;;;;;7.57;5.82;;;;;;;4.64;100.00;94075.06;5109259;28;20125;-70
2022/10/05 02:06:12;;;;;;;7.30;5.28;;;;;;;4.71;100.00;94077.81;5106332;28;20035;-70
2022/10/05 02:08:43;;;;;;;7.28;5.25;;;;;;;4.74;100.00;94074.97;5108601;28;20503;-70
2022/10/05 02:11:13;;;;;;;8.93;5.60;;;;;;;4.76;100.00;94087.53;5108433;28;20036;-70
2022/10/05 02:13:43;;;;;;;6.93;4.80;;;;;;;4.77;100.00;94073.88;5108608;28;20089;-70
2022/10/05 02:16:16;;;;;;;6.82;4.63;;;;;;;4.63;100.00;94059.97;5108709;28;20054;-70
2022/10/05 02:18:50;;;;;;;6.05;4.97;;;;;;;4.75;100.00;94078.31;5108827;28;20093;-70
2022/10/05 02:21:18;;;;;;;6.20;4.75;;;;;;;4.77;100.00;94079.75;5108912;28;20449;-70
2022/10/05 02:23:47;;;;;;;6.18;4.60;;;;;;;4.76;100.00;94070.53;5106195;28;20083;-70
2022/10/05 02:26:16;;;;;;;6.78;4.88;;;;;;;4.74;100.00;94079.25;5108927;28;20047;-70
2022/10/05 02:28:47;;;;;;;6.07;5.25;;;;;;;4.78;100.00;94085.66;5111328;28;20089;-70
2022/10/05 02:31:18;;;;;;;6.45;5.38;;;;;;;4.75;100.00;94089.28;5112689;28;20040;-70
2022/10/05 02:33:44;;;;;;;6.55;5.47;;;;;;;4.71;100.00;94089.75;5112845;28;20040;-70
2022/10/05 02:36:15;;;;;;;7.00;5.53;;;;;;;4.69;100.00;94089.91;5113307;28;20036;-70
2022/10/05 02:38:59;;;;;;;6.53;5.82;;;;;;;4.67;100.00;94090.03;5124694;27;20144;-70
2022/10/05 02:41:37;;;;;;;7.18;5.60;;;;;;;4.64;100.00;94089.56;5133531;27;20123;-70
2022/10/05 02:44:13;;;;;;;7.45;5.60;;;;;;;4.60;100.00;94094.16;5133624;27;20047;-70
2022/10/05 02:46:47;;;;;;;6.85;5.43;;;;;;;4.61;100.00;94082.22;5133474;27;20092;-70
2022/10/05 02:49:23;;;;;;;6.82;5.53;;;;;;;4.55;100.00;94093.81;5133454;27;20092;-70
2022/10/05 02:51:57;;;;;;;5.45;4.78;;;;;;;4.49;100.00;94082.47;5133803;27;20090;-70
2022/10/05 02:54:36;;;;;;;6.88;5.38;;;;;;;4.51;100.00;94082.31;5133286;27;20499;-70
2022/10/05 02:57:10;;;;;;;6.55;5.60;;;;;;;4.56;100.00;94085.22;5133911;27;20103;-70
2022/10/05 02:59:42;;;;;;;6.30;5.05;;;;;;;4.55;100.00;94083.63;5133212;27;20484;-70
2022/10/05 03:02:17;;;;;;;6.18;4.90;;;;;;;4.56;100.00;94085.22;5133542;27;20055;-69
2022/10/05 03:04:54;;;;;;;6.50;4.47;;;;;;;4.54;100.00;94089.66;5133100;27;20555;-69
2022/10/05 03:07:26;;;;;;;5.72;4.55;;;;;;;4.54;100.00;94094.75;5132980;27;20546;-70
2022/10/05 03:09:59;;;;;;;6.57;4.32;;;;;;;4.45;100.00;94093.91;5132924;27;20047;-70
2022/10/05 03:12:44;;;;;;;5.25;4.35;;;;;;;4.34;100.00;94106.84;5133483;27;20043;-70
2022/10/05 03:15:25;;;;;;;6.65;4.78;;;;;;;4.24;100.00;94109.47;5132922;27;20096;-70
2022/10/05 03:18:03;;;;;;;8.82;5.90;;;;;;;4.19;100.00;94104.84;5132964;27;20107;-70
2022/10/05 03:20:42;;;;;;;9.55;7.05;;;;;;;4.16;100.00;94096.72;5118575;27;20055;-69
2022/10/05 03:23:17;;;;;;;7.78;6.20;;;;;;;4.19;100.00;94101.50;5132913;27;20088;-70
2022/10/05 03:26:02;;;;;;;7.38;6.53;;;;;;;4.25;100.00;94094.09;5132779;27;20047;-69
2022/10/05 03:28:37;;;;;;;7.35;6.60;;;;;;;4.26;100.00;94099.97;5132816;27;20091;-69
2022/10/05 03:31:08;;;;;;;7.32;6.13;;;;;;;4.20;100.00;94106.44;5132906;27;20039;-70
2022/10/05 03:33:46;;;;;;;8.50;5.80;;;;;;;4.21;100.00;94100.41;5132999;27;20088;-69
2022/10/05 03:36:21;;;;;;;8.52;6.22;;;;;;;4.24;100.00;94097.59;5132459;27;20115;-70
2022/10/05 03:38:53;;;;;;;8.63;6.53;;;;;;;4.24;100.00;94102.66;5132250;27;20440;-70
2022/10/05 03:41:27;;;;;;;9.38;7.32;;;;;;;4.19;100.00;94098.97;5132408;27;20035;-70
2022/10/05 03:44:21;;;;;;;8.70;7.45;;;;;;;4.20;100.00;94111.53;5133116;27;20103;-70
2022/10/05 03:46:59;;;;;;;8.60;6.32;;;;;;;4.12;100.00;94114.81;5106548;27;20047;-70
2022/10/05 03:49:38;;;;;;;8.45;6.35;;;;;;;4.04;100.00;94124.13;5132101;27;20561;-70
2022/10/05 03:52:10;;;;;;;7.78;6.13;;;;;;;3.92;100.00;94129.41;5132657;27;20043;-70
2022/10/05 03:54:42;;;;;;;10.00;6.88;;;;;;;3.92;100.00;94123.53;5132088;27;20384;-70
2022/10/05 03:57:12;;;;;;;6.72;5.90;;;;;;;3.98;100.00;94117.88;5132445;27;20043;-70
2022/10/05 03:59:44;;;;;;;8.60;6.45;;;;;;;4.00;100.00;94126.16;5131861;27;20050;-69
2022/10/05 04:02:20;;;;;;;8.45;6.88;;;;;;;4.04;100.00;94124.94;5132096;27;20055;-70
2022/10/05 04:04:50;;;;;;;;;;;;;;;4.10;100.00;94136.25;5132448;27;20047;-70
2022/10/05 04:07:30;;;;;;;9.57;7.05;;;;;;;4.06;100.00;94125.56;5132366;27;19964;-70
2022/10/05 04:09:58;;;;;;;10.63;8.15;;;;;;;4.14;100.00;94142.63;5132135;27;20469;-70
2022/10/05 04:12:27;;;;;;;9.75;7.85;;;;;;;4.05;100.00;94125.72;5131890;27;20039;-70
2022/10/05 04:14:59;;;;;;;9.93;7.78;;;;;;;4.13;100.00;94135.97;5131849;27;20051;-70
2022/10/05 04:17:33;;;;;;;10.07;7.47;;;;;;;4.12;100.00;94142.00;5131796;27;20080;-70
2022/10/05 04:20:05;;;;;;;10.27;7.45;;;;;;;4.11;100.00;94141.19;5120922;27;20105;-70
2022/10/05 04:22:38;;;;;;;10.50;8.20;;;;;;;4.06;100.00;94148.44;5116488;27;20050;-70
2022/10/05 04:25:14;;;;;;;11.63;7.80;;;;;;;3.99;100.00;94145.69;5112611;27;20040;-70
2022/10/05 04:27:46;;;;;;;10.32;7.47;;;;;;;3.81;100.00;94148.25;5131237;27;20095;-70
2022/10/05 04:30:16;;;;;;;10.48;7.65;;;;;;;3.87;100.00;94149.38;5131711;27;20115;-70
2022/10/05 04:32:45;;;;;;;10.35;7.55;;;;;;;3.84;100.00;94153.03;5131434;27;20084;-70
2022/10/05 04:35:26;;;;;;;14.80;9.02;;;;;;;3.90;100.00;94151.66;5131657;27;20047;-70
2022/10/05 04:38:04;;;;;;;14.73;10.27;;;;;;;3.89;100.00;94155.13;5131165;27;20396;-70
2022/10/05 04:40:47;;;;;;;13.75;10.45;;;;;;;3.91;100.00;94160.88;5131254;27;20642;-70
2022/10/05 04:43:19;;;;;;;26.98;18.25;;;;;;;3.55;100.00;94166.72;5104944;27;20421;-70
2022/10/05 04:46:06;;;;;;;32.08;21.13;;;;;;;3.19;100.00;94175.03;5131138;27;20088;-70
2022/10/05 04:48:52;;;;;;;20.75;15.40;;;;;;;3.07;100.00;94181.22;5131286;27;20047;-70
2022/10/05 04:51:33;;;;;;;22.73;16.55;;;;;;;3.03;100.00;94183.25;5129828;27;20043;-69
2022/10/05 04:54:11;;;;;;;26.13;16.92;;;;;;;3.16;100.00;94193.06;5130812;27;20047;-69
2022/10/05 04:56:42;;;;;;;25.05;16.50;;;;;;;3.48;100.00;94191.09;5130847;27;20072;-70
2022/10/05 04:59:45;;;;;;;27.77;18.08;;;;;;;3.67;100.00;94184.28;5131165;27;20099;-70
2022/10/05 05:02:21;;;;;;;29.35;18.83;;;;;;;3.68;100.00;94155.41;5077828;27;20064;-70
2022/10/05 05:05:31;;;;;;;29.60;19.38;;;;;;;4.08;100.00;94189.00;5131030;27;20047;-70
2022/10/05 05:08:11;;;;;;;32.25;19.77;;;;;;;4.23;100.00;94182.47;5093840;27;20164;-70
2022/10/05 05:10:54;;;;;;;32.53;18.73;;;;;;;4.41;100.00;94177.34;5130913;27;20051;-70
2022/10/05 05:13:47;;;;;;;29.30;19.17;;;;;;;4.52;100.00;94188.22;5130695;27;21149;-70
2022/10/05 05:16:24;;;;;;;27.48;18.65;;;;;;;4.65;100.00;94187.84;5130644;27;20047;-70
2022/10/05 05:19:09;;;;;;;29.17;19.08;;;;;;;4.76;100.00;94194.44;5101546;27;20046;-70
2022/10/05 05:21:42;;;;;;;28.98;19.00;;;;;;;4.89;100.00;94197.41;5120209;27;20096;-68
2022/10/05 05:24:19;;;;;;;27.98;17.73;;;;;;;4.99;100.00;94189.66;5130682;27;20092;-68
2022/10/05 05:27:00;;;;;;;21.50;16.08;;;;;;;5.18;100.00;94201.38;5130661;27;20062;-67
2022/10/05 05:29:37;;;;;;;18.83;13.90;;;;;;;5.31;100.00;94198.41;5130169;27;20096;-68
2022/10/05 05:32:13;;;;;;;18.40;12.80;;;;;;;5.40;100.00;94203.53;5130601;27;20096;-68
2022/10/05 05:34:56;;;;;;;21.38;12.85;;;;;;;5.52;100.00;94202.34;5130025;27;20050;-70
2022/10/05 05:37:31;;;;;;;16.67;11.07;;;;;;;5.62;100.00;94205.53;5130036;27;20092;-71
2022/10/05 05:40:07;;;;;;;18.88;11.35;;;;;;;5.67;100.00;94202.53;5130366;27;20043;-71
2022/10/05 05:42:38;;;;;;;;;;;;;;;5.75;100.00;94200.00;5130596;27;20047;-70
2022/10/05 05:45:16;;;;;;;20.25;11.80;;;;;;;5.69;100.00;94192.19;5130128;27;19920;-69
2022/10/05 05:47:50;;;;;;;19.92;14.05;;;;;;;5.87;100.00;94200.53;5130140;27;20487;-68
2022/10/05 05:50:33;;;;;;;30.40;18.08;;;;;;;5.97;100.00;94202.94;5130463;27;20053;-68
2022/10/05 05:53:06;;;;;;;33.05;20.17;;;;;;;5.86;100.00;94168.34;5130048;27;20043;-68
2022/10/05 05:55:40;;;;;;;34.53;22.63;;;;;;;6.19;100.00;94210.16;5130501;27;20454;-68
2022/10/05 05:58:18;;;;;;;226.18;123.75;;;;;;;6.31;100.00;94213.22;5130068;27;20091;-68
2022/10/05 06:00:50;;;;;;;406.60;211.85;;;;;;;6.29;100.00;94192.94;5130265;27;20043;-68
2022/10/05 06:03:22;;;;;;;367.63;175.68;;;;;;;6.47;100.00;94212.44;5129858;27;20087;-68
2022/10/05 06:05:53;;;;;;;367.17;169.68;;;;;;;6.58;100.00;94212.13;5130347;28;20051;-68
2022/10/05 06:08:29;;;;;;;178.60;87.55;;;;;;;6.67;100.00;94212.91;5129538;28;20111;-69
2022/10/05 06:11:01;;;;;;;183.88;81.93;;;;;;;6.81;100.00;94217.38;5130024;28;20092;-68
2022/10/05 06:13:33;;;;;;;201.30;90.57;;;;;;;6.90;100.00;94218.16;5129777;28;20039;-68
2022/10/05 06:16:08;;;;;;;85.70;42.72;;;;;;;7.04;100.00;94215.91;5129591;28;20047;-68
2022/10/05 06:18:38;;;;;;;135.38;65.88;;;;;;;7.25;100.00;94217.13;5129609;28;20036;-68
2022/10/05 06:21:11;;;;;;;57.75;31.23;;;;;;;7.49;100.00;94224.75;5115220;28;20085;-68
2022/10/05 06:23:48;;;;;;;103.22;51.97;;;;;;;7.79;100.00;94231.03;5129632;28;20053;-68
2022/10/05 06:26:24;;;;;;;69.95;36.85;;;;;;;8.02;100.00;94231.84;5129947;28;20100;-68
2022/10/05 06:28:57;;;;;;;45.03;25.48;;;;;;;8.23;100.00;94233.03;5129614;28;20047;-68
2022/10/05 06:31:44;;;;;;;35.65;21.30;;;;;;;8.41;100.00;94235.31;5129554;28;20047;-68
2022/10/05 06:34:27;;;;;;;39.83;20.80;;;;;;;8.50;100.00;94238.63;5129759;28;20099;-68
2022/10/05 06:36:59;;;;;;;36.25;21.35;;;;;;;8.61;100.00;94240.00;5130034;28;20047;-68
2022/10/05 06:39:52;;;;;;;44.10;22.58;;;;;;;8.35;100.00;94246.25;5129391;28;20050;-68
2022/10/05 06:42:57;;;;;;;58.00;31.08;;;;;;;8.12;100.00;94246.22;5129423;28;20255;-68
2022/10/05 06:45:40;;;;;;;54.10;30.25;;;;;;;7.84;100.00;94246.66;5129701;28;20088;-68
2022/10/05 06:48:16;;;;;;;50.75;26.38;;;;;;;7.75;100.00;94254.38;5129670;28;20088;-68
2022/10/05 06:50:47;;;;;;;49.85;26.65;;;;;;;7.67;100.00;94256.97;5129304;28;20088;-68
2022/10/05 06:53:28;;;;;;;44.13;24.30;;;;;;;7.62;100.00;94259.22;5129785;28;20039;-68
2022/10/05 06:56:01;;;;;;;43.30;23.85;;;;;;;7.71;100.00;94258.22;5129834;28;20043;-68
2022/10/05 06:58:46;;;;;;;41.92;21.67;;;;;;;7.84;100.00;94265.38;5094253;28;20921;-68
2022/10/05 07:01:20;;;;;;;41.53;23.25;;;;;;;8.02;100.00;94264.34;5128208;28;20043;-70
2022/10/05 07:04:02;;;;;;;43.58;21.77;;;;;;;8.14;100.00;94273.22;5129312;28;20508;-69
2022/10/05 07:06:36;;;;;;;42.17;21.77;;;;;;;8.34;100.00;94275.34;5129310;28;20088;-68
2022/10/05 07:09:18;;;;;;;37.45;21.63;;;;;;;8.65;100.00;94277.13;5129368;28;20108;-68
2022/10/05 07:12:19;;;;;;;34.10;19.27;;;;;;;9.00;100.00;94279.28;5129431;28;20043;-68
2022/10/05 07:14:59;;;;;;;27.67;14.88;;;;;;;9.22;100.00;94261.47;5131588;27;20043;-68
2022/10/05 07:17:44;;;;;;;16.98;10.60;;;;;;;9.53;100.00;94273.31;5132843;27;20039;-68
2022/10/05 07:20:17;;;;;;;16.48;10.40;;;;;;;9.76;100.00;94275.81;5109874;27;20088;-68
2022/10/05 07:23:13;;;;;;;21.23;10.90;;;;;;;9.99;100.00;94277.47;5131582;27;20043;-68
2022/10/05 07:25:46;;;;;;;16.25;9.07;;;;;;;10.26;100.00;94267.50;5132584;27;20544;-68
2022/10/05 07:28:23;;;;;;;18.35;9.23;;;;;;;10.42;100.00;94278.53;5133075;27;20043;-68
2022/10/05 07:30:56;;;;;;;14.90;8.02;;;;;;;10.45;100.00;94287.69;5127246;27;20040;-68
2022/10/05 07:33:28;;;;;;;13.57;8.48;;;;;;;10.66;100.00;94289.47;5125276;27;20092;-68
2022/10/05 07:38:53;;;;;;;17.55;9.52;;;;;;;11.16;100.00;94270.72;5132616;27;20525;-68
2022/10/05 07:41:26;;;;;;;17.25;8.98;;;;;;;11.19;100.00;94265.97;5132616;27;20050;-68
2022/10/05 07:43:57;;;;;;;15.52;9.20;;;;;;;11.52;100.00;94266.41;5132863;27;20047;-68
2022/10/05 07:46:35;;;;;;;14.35;7.18;;;;;;;11.35;100.00;94272.59;5125554;27;20040;-68
2022/10/05 07:49:09;;;;;;;12.32;7.10;;;;;;;11.55;100.00;94281.44;5127571;27;20479;-68
2022/10/05 07:51:39;;;;;;;12.05;7.20;;;;;;;11.27;100.00;94285.63;5132451;27;20047;-68
2022/10/05 07:54:18;;;;;;;11.18;6.72;;;;;;;10.89;100.00;94291.88;5132211;27;20053;-69
2022/10/05 07:56:48;;;;;;;13.23;6.95;;;;;;;11.24;100.00;94280.84;5132658;27;20092;-68
2022/10/05 07:59:26;;;;;;;13.45;6.93;;;;;;;11.44;100.00;94277.63;5132070;27;20088;-69
2022/10/05 08:02:03;;;;;;;8.95;5.88;;;;;;;11.27;100.00;94287.38;5132494;27;20051;-68
2022/10/05 08:04:37;;;;;;;13.02;7.05;;;;;;;11.12;100.00;94278.00;5132185;27;20043;-69
2022/10/05 08:07:07;;;;;;;15.18;6.93;;;;;;;11.11;100.00;94283.31;5132389;27;20051;-68
2022/10/05 08:09:40;;;;;;;9.88;6.10;;;;;;;11.42;100.00;94282.94;5131757;27;20100;-68
2022/10/05 08:12:23;;;;;;;11.20;6.55;;;;;;;11.70;100.00;94299.34;5132064;27;20051;-69
2022/10/05 08:14:55;;;;;;;10.10;5.57;;;;;;;11.93;100.00;94299.06;5131975;27;20062;-69
2022/10/05 08:17:45;;;;;;;8.93;4.47;;;;;;;11.95;100.00;94293.75;5131907;27;20043;-69
2022/10/05 08:20:25;;;;;;;8.57;5.05;;;;;;;12.11;100.00;94300.38;5119165;27;20560;-69
2022/10/05 08:22:59;;;;;;;7.57;5.28;;;;;;;12.16;100.00;94298.00;5103593;27;20047;-68
2022/10/05 08:25:37;;;;;;;10.98;6.95;;;;;;;12.54;100.00;94302.69;5118371;27;20047;-68
2022/10/05 08:28:09;;;;;;;10.20;5.85;;;;;;;12.89;100.00;94296.63;5131653;27;20043;-68
2022/10/05 08:30:51;;;;;;;12.35;7.22;;;;;;;13.14;100.00;94300.41;5131549;27;20108;-69
2022/10/05 08:33:23;;;;;;;12.00;5.75;;;;;;;13.38;98.19;94301.56;5131679;27;20395;-69
2022/10/05 08:35:59;;;;;;;5.50;3.58;;;;;;;13.38;93.21;94299.00;5131737;27;20047;-69
2022/10/05 08:38:32;;;;;;;4.85;3.95;;;;;;;13.49;96.61;94295.06;5131424;27;20043;-69
2022/10/05 08:41:45;;;;;;;8.25;4.15;;;;;;;13.74;95.92;94294.41;5131393;27;20190;-69
2022/10/05 08:44:51;;;;;;;7.63;5.10;;;;;;;13.90;94.51;94290.63;5131602;27;20127;-69
2022/10/05 08:47:59;;;;;;;5.95;3.80;;;;;;;14.10;90.04;94303.47;5128200;27;20088;-69
2022/10/05 08:50:34;;;;;;;7.25;4.05;;;;;;;14.32;95.02;94300.59;5029659;28;20104;-69
2022/10/05 08:53:20;;;;;;;5.38;3.83;;;;;;;14.45;88.75;94298.94;5121145;27;20452;-69
2022/10/05 08:56:10;;;;;;;5.03;3.30;;;;;;;14.12;85.13;94298.09;5131222;27;20452;-69
2022/10/05 08:58:52;;;;;;;5.65;3.75;;;;;;;14.23;87.63;94297.47;5130908;27;20490;-69
2022/10/05 09:01:25;;;;;;;5.10;3.38;;;;;;;14.26;87.35;94294.44;5130929;27;20051;-69
2022/10/05 09:04:29;;;;;;;4.95;3.40;;;;;;;14.06;83.56;94299.69;5130805;27;20084;-69
2022/10/05 09:07:17;;;;;;;3.55;2.72;;;;;;;14.15;83.70;94295.09;5112946;27;20126;-69
2022/10/05 09:10:06;;;;;;;4.80;3.05;;;;;;;14.40;87.16;94297.00;5108378;28;20040;-69
2022/10/05 09:13:04;;;;;;;5.05;3.33;;;;;;;14.76;90.81;94293.03;5109472;28;20047;-69
2022/10/05 09:15:54;;;;;;;5.85;2.63;;;;;;;15.08;84.75;94295.59;5102618;28;20047;-70
2022/10/05 09:18:54;;;;;;;4.45;2.70;;;;;;;15.34;87.29;94287.84;5109386;28;20044;-69
2022/10/05 09:21:36;;;;;;;4.80;2.42;;;;;;;15.56;86.13;94292.63;5107517;28;20093;-69
2022/10/05 09:24:21;;;;;;;4.25;2.85;;;;;;;15.86;87.01;94295.31;5109689;28;20040;-69
2022/10/05 09:27:00;;;;;;;7.25;3.20;;;;;;;16.17;85.86;94298.00;5129429;27;20042;-69
2022/10/05 09:30:00;;;;;;;4.57;2.70;;;;;;;16.04;82.12;94296.34;5116795;27;20644;-69
2022/10/05 09:32:52;;;;;;;5.50;2.83;;;;;;;15.49;78.63;94293.50;5103397;28;20052;-69
2022/10/05 09:35:38;;;;;;;7.13;3.00;;;;;;;15.89;84.04;94286.31;5115813;27;20044;-69
2022/10/05 09:38:16;;;;;;;5.18;2.75;;;;;;;16.16;82.94;94289.44;5127687;27;20088;-69
2022/10/05 09:41:29;;;;;;;5.25;2.55;;;;;;;16.19;80.51;94290.03;5129874;27;20495;-69
2022/10/05 09:44:36;;;;;;;6.50;2.90;;;;;;;16.27;79.40;94290.50;5130527;27;20043;-69
2022/10/05 09:47:36;;;;;;;6.22;2.70;;;;;;;16.60;77.63;94285.91;5130300;27;20055;-68
2022/10/05 09:50:49;;;;;;;5.05;2.95;;;;;;;16.91;79.56;94288.47;5102162;27;20039;-69
2022/10/05 09:53:39;;;;;;;5.00;2.70;;;;;;;17.16;78.75;94282.31;5130254;27;20445;-69
2022/10/05 09:56:33;;;;;;;4.60;2.90;;;;;;;16.69;72.69;94287.19;5130147;27;20053;-69
2022/10/05 09:59:32;;;;;;;6.15;2.38;;;;;;;17.02;72.97;94279.13;5130341;27;20453;-69
2022/10/05 10:02:18;;;;;;;5.47;2.28;;;;;;;17.31;77.20;94271.53;5115738;27;20055;-69
2022/10/05 10:05:06;;;;;;;6.68;2.00;;;;;;;17.28;70.16;94275.38;5118726;28;20051;-69
2022/10/05 10:07:49;;;;;;;7.97;2.63;;;;;;;16.80;74.48;94270.06;5130108;28;20043;-69
2022/10/05 10:10:53;;;;;;;3.67;2.10;;;;;;;17.31;76.60;94266.34;5130459;28;20104;-69
2022/10/05 10:13:44;;;;;;;4.88;2.13;;;;;;;17.46;66.67;94264.06;5099911;28;20043;-69
2022/10/05 10:16:23;;;;;;;3.08;1.75;;;;;;;17.30;66.50;94273.31;5126810;28;20114;-69
2022/10/05 10:19:06;;;;;;;5.53;2.03;;;;;;;16.90;67.27;94277.28;5128769;28;20494;-69
2022/10/05 10:22:07;;;;;;;4.38;2.58;;;;;;;16.84;70.31;94270.41;5119069;28;20088;-69
2022/10/05 10:25:01;;;;;;;3.47;1.70;;;;;;;16.53;66.57;94272.25;5121342;28;20100;-69
2022/10/05 10:27:52;;;;;;;4.30;1.80;;;;;;;16.74;68.52;94263.16;5119210;28;20043;-69
2022/10/05 10:31:02;;;;;;;3.03;1.45;;;;;;;16.24;63.58;94275.38;5121246;28;20051;-69
2022/10/05 10:33:57;;;;;;;3.97;2.05;;;;;;;15.78;63.87;94267.09;5107617;28;20039;-69
2022/10/05 10:36:32;;;;;;;;;;;;;;;15.76;66.67;94262.16;5105543;28;20083;-69
2022/10/05 10:39:06;;;;;;;1.80;1.13;;;;;;;14.94;65.13;94263.88;5115097;28;19923;-69
2022/10/05 10:42:05;;;;;;;4.10;1.50;;;;;;;15.15;68.60;94250.78;5129669;28;20067;-69
2022/10/05 10:44:57;;;;;;;3.38;1.45;;;;;;;14.92;64.90;94259.91;5110218;28;20156;-68
2022/10/05 10:48:02;;;;;;;2.70;1.05;;;;;;;15.01;64.13;94256.06;5115443;28;20054;-69
2022/10/05 10:50:58;;;;;;;4.20;1.30;;;;;;;14.99;62.62;94258.06;5037358;28;20087;-69
2022/10/05 10:54:11;;;;;;;2.92;1.00;;;;;;;14.83;63.06;94249.03;5133596;27;20536;-69
2022/10/05 10:56:53;;;;;;;1.88;1.10;;;;;;;14.90;64.15;94251.56;5133613;27;20047;-69
2022/10/05 11:00:07;;;;;;;2.38;1.15;;;;;;;15.03;61.94;94246.28;5133056;27;20047;-69
2022/10/05 11:03:13;;;;;;;2.38;0.98;;;;;;;15.25;60.44;94245.09;5096884;27;20059;-68
2022/10/05 11:06:11;;;;;;;1.13;0.70;;;;;;;14.94;61.95;94242.38;5132965;27;20099;-69
2022/10/05 11:09:14;;;;;;;1.55;0.70;;;;;;;14.92;62.14;94240.00;5099152;27;20383;-69
2022/10/05 11:12:20;;;;;;;1.98;1.00;;;;;;;15.40;58.85;94231.81;5122000;27;20100;-69
2022/10/05 11:15:03;;;;;;;2.83;1.15;;;;;;;15.68;57.76;94226.16;5131694;27;20092;-69
2022/10/05 11:17:55;;;;;;;2.13;0.80;;;;;;;15.09;58.05;94223.97;5132965;27;20043;-68
2022/10/05 11:20:42;;;;;;;1.75;0.73;;;;;;;15.45;59.99;94219.03;5115712;27;20124;-69
2022/10/05 11:23:37;;;;;;;1.90;0.80;;;;;;;15.32;60.20;94219.97;5091248;28;20498;-71
2022/10/05 11:26:28;;;;;;;3.92;1.20;;;;;;;15.51;58.39;94223.38;5038274;28;20351;-69
2022/10/05 11:29:23;;;;;;;2.03;1.00;;;;;;;15.60;61.74;94214.28;5092144;28;20054;-69
2022/10/05 11:32:26;;;;;;;1.60;1.10;;;;;;;15.57;59.18;94212.16;5092100;28;20087;-69
2022/10/05 11:35:23;;;;;;;2.15;1.00;;;;;;;15.99;61.57;94203.72;5103015;28;20071;-69
2022/10/05 11:38:21;;;;;;;2.38;0.88;;;;;;;16.17;59.34;94210.66;5129054;27;20051;-69
2022/10/05 11:41:15;;;;;;;3.17;0.77;;;;;;;16.08;60.53;94209.41;5060561;27;20055;-69
2022/10/05 11:44:09;;;;;;;2.92;1.30;;;;;;;16.25;58.04;94195.81;5132757;27;20044;-69
2022/10/05 11:46:44;;;;;;;2.17;0.75;;;;;;;16.49;58.70;94204.47;5132739;27;20039;-69
2022/10/05 11:49:33;;;;;;;2.53;1.05;;;;;;;16.79;58.71;94198.44;5132528;27;20549;-70
2022/10/05 11:52:12;;;;;;;1.98;0.70;;;;;;;17.03;55.84;94193.28;5111323;27;20561;-69
2022/10/05 11:54:51;;;;;;;2.28;0.80;;;;;;;17.22;55.48;94199.16;5106866;27;20093;-69
2022/10/05 11:57:27;;;;;;;4.00;1.10;;;;;;;16.58;58.09;94194.56;5132473;27;20054;-69
2022/10/05 12:00:02;;;;;;;2.58;1.00;;;;;;;16.48;57.38;94194.31;5131740;27;20088;-69
2022/10/05 12:02:47;;;;;;;1.80;0.95;;;;;;;15.95;60.13;94186.22;5132209;27;20503;-68
2022/10/05 12:05:20;;;;;;;2.08;1.10;;;;;;;15.95;56.60;94187.03;5132275;27;20104;-68
2022/10/05 12:08:02;;;;;;;1.67;0.95;;;;;;;16.29;60.04;94181.38;5131858;27;20043;-68
2022/10/05 12:10:34;;;;;;;1.85;0.70;;;;;;;16.52;54.38;94180.66;5098837;27;20101;-69
2022/10/05 12:13:27;;;;;;;1.80;0.80;;;;;;;16.66;55.18;94178.66;5130236;27;20047;-69
2022/10/05 12:16:00;;;;;;;1.45;0.70;;;;;;;16.89;54.25;94171.13;5131796;27;20096;-69
2022/10/05 12:18:46;;;;;;;3.17;1.23;;;;;;;16.32;52.81;94173.19;5132059;27;20126;-69
2022/10/05 12:21:23;;;;;;;3.45;1.40;;;;;;;16.28;51.28;94183.22;5104342;27;20047;-69
2022/10/05 12:23:54;;;;;;;3.78;1.90;;;;;;;16.23;51.65;94180.47;5129984;27;20449;-69
2022/10/05 12:26:26;;;;;;;3.53;1.00;;;;;;;16.10;52.71;94171.09;5131512;27;20039;-69
2022/10/05 12:29:01;;;;;;;4.53;0.80;;;;;;;16.25;51.39;94181.03;5131479;27;20047;-69
2022/10/05 12:31:38;;;;;;;2.37;1.30;;;;;;;16.25;53.81;94185.44;5131863;27;20458;-69
2022/10/05 12:34:13;;;;;;;3.85;1.05;;;;;;;16.09;52.92;94153.94;5131644;27;20044;-69